CG Bonito — NNGB — position and weather

sailwx.info

Track history (hours):
 
Tides and Currents Weather Stations Pressure Air Temp Water Temp Dewpoint Dewpoint Depression Visibility Wind Speed Wind Dir Waves Ship Positions

CG Bonito

Last reported at 2017-Oct-15 19:52 UTC. Time now 2017-Oct-18 11:26 UTC.
Position N 41°10' W 072°18'.

Length 26 m.

Type: Ship. MMSI: 366999656.

Date/timePositionNaut miles runAvg speedWind from/ knotsBaromVisibWave heightAir tempDewpointWater temp
2017-Oct-15 19:52N 41°10' W 072°18'719.7
2017-Oct-15 19:30N 41°09' W 072°27'8 0.1
2017-Oct-13 15:33N 41°08' W 072°37'111.1
2017-Oct-13 15:30N 41°08' W 072°36'511.3
2017-Oct-13 15:00N 41°09' W 072°29'510.5
2017-Oct-13 14:30N 41°10' W 072°22'  
2017-Oct-08 02:44N 40°17' W 073°02'2 8.3
2017-Oct-08 02:26N 40°15' W 073°05'5 7.5
2017-Oct-08 01:47N 40°12' W 073°10'3 7.3
2017-Oct-08 01:24N 40°11' W 073°13'3 7.3
2017-Oct-08 00:55N 40°08' W 073°16'39 3.6
2017-Oct-07 14:08N 40°31' W 073°58'216.6
2017-Oct-07 13:59N 40°32' W 074°01'612.5
2017-Oct-07 13:30N 40°38' W 074°03'3 5.9
2017-Oct-07 13:00N 40°40' W 074°05'0 0.0
2017-Oct-07 12:30N 40°40' W 074°05'0 0.1
2017-Oct-07 12:00N 40°40' W 074°05'0 0.0
2017-Oct-07 11:30N 40°40' W 074°05'0 0.0
2017-Oct-07 11:00N 40°40' W 074°05'0 0.0
2017-Oct-07 10:27N 40°40' W 074°05'0 0.0
2017-Oct-07 10:00N 40°40' W 074°05'0 0.0
2017-Oct-07 09:30N 40°40' W 074°05'0 0.0
2017-Oct-07 09:00N 40°40' W 074°05'0 0.0
2017-Oct-07 08:30N 40°40' W 074°05'0 0.0
2017-Oct-07 07:54N 40°40' W 074°05'0 0.0
2017-Oct-07 07:27N 40°40' W 074°05'0 0.0
2017-Oct-07 07:00N 40°40' W 074°05'0 0.0
2017-Oct-07 06:30N 40°40' W 074°05'0 0.0
2017-Oct-07 05:57N 40°40' W 074°05'0 0.0
2017-Oct-07 05:27N 40°40' W 074°05'0 0.0
2017-Oct-07 05:01N 40°40' W 074°05'0 0.0
2017-Oct-07 04:30N 40°40' W 074°05'0 0.0
2017-Oct-07 04:00N 40°40' W 074°05'0 0.0
2017-Oct-07 03:30N 40°40' W 074°05'0 0.0
2017-Oct-07 03:00N 40°40' W 074°05'0 0.0
2017-Oct-07 02:30N 40°40' W 074°05'0 0.0
2017-Oct-07 02:00N 40°40' W 074°05'0 0.0
2017-Oct-07 01:27N 40°40' W 074°05'0 0.0
2017-Oct-07 00:57N 40°40' W 074°05'0 0.0
2017-Oct-07 00:28N 40°40' W 074°05'0 0.0
2017-Oct-06 23:54N 40°40' W 074°05'0 0.0
2017-Oct-06 23:30N 40°40' W 074°05'0 0.0
2017-Oct-06 22:58N 40°40' W 074°05'0 0.0
2017-Oct-06 22:28N 40°40' W 074°05'0 0.0
2017-Oct-06 22:00N 40°40' W 074°05'0 0.0
2017-Oct-06 21:27N 40°40' W 074°05'0 0.0
2017-Oct-06 20:51N 40°40' W 074°05'0 0.0
2017-Oct-06 20:27N 40°40' W 074°05'0 0.0
2017-Oct-06 19:55N 40°40' W 074°05'0 0.0
2017-Oct-06 19:27N 40°40' W 074°05'0 0.0
2017-Oct-06 19:00N 40°40' W 074°05'0 0.0
2017-Oct-06 18:30N 40°40' W 074°05'0 0.0
2017-Oct-06 18:00N 40°40' W 074°05'0 0.0
2017-Oct-06 17:27N 40°40' W 074°05'0 0.0
2017-Oct-06 17:00N 40°40' W 074°05'0 0.0
2017-Oct-06 16:27N 40°40' W 074°05'0 0.0
2017-Oct-06 16:00N 40°40' W 074°05'0 0.0
2017-Oct-06 15:30N 40°40' W 074°05'0 0.0
2017-Oct-06 14:58N 40°40' W 074°05'0 0.0
2017-Oct-06 14:28N 40°40' W 074°05'0 0.0
2017-Oct-06 14:00N 40°40' W 074°05'0 0.0
2017-Oct-06 13:30N 40°40' W 074°05'0 0.0
2017-Oct-06 13:00N 40°40' W 074°05'0 0.0
2017-Oct-06 12:24N 40°40' W 074°05'0 0.0
2017-Oct-06 11:57N 40°40' W 074°05'0 0.0
2017-Oct-06 11:30N 40°40' W 074°05'0 0.0
2017-Oct-06 10:57N 40°40' W 074°05'0 0.0
2017-Oct-06 10:30N 40°40' W 074°05'0 0.0
2017-Oct-06 10:00N 40°40' W 074°05'0 0.0
2017-Oct-06 09:30N 40°40' W 074°05'0 0.0
2017-Oct-06 09:00N 40°40' W 074°05'0 0.0
2017-Oct-06 08:30N 40°40' W 074°05'0 0.0
2017-Oct-06 08:00N 40°40' W 074°05'0 0.0
2017-Oct-06 07:27N 40°40' W 074°05'0 0.0
2017-Oct-06 07:00N 40°40' W 074°05'0 0.0
2017-Oct-06 06:30N 40°40' W 074°05'0 0.0
2017-Oct-06 06:00N 40°40' W 074°05'0 0.0
2017-Oct-06 05:30N 40°40' W 074°05'0 0.0
2017-Oct-06 04:58N 40°40' W 074°05'0 0.0
2017-Oct-06 04:28N 40°40' W 074°05'0 0.0
2017-Oct-06 04:00N 40°40' W 074°05'0 0.0
2017-Oct-06 03:27N 40°40' W 074°05'0 0.0
2017-Oct-06 03:00N 40°40' W 074°05'0 0.0
2017-Oct-06 02:30N 40°40' W 074°05'0 0.0
2017-Oct-06 02:00N 40°40' W 074°05'0 0.0
2017-Oct-06 01:27N 40°40' W 074°05'0 0.0
2017-Oct-06 01:00N 40°40' W 074°05'0 0.0
2017-Oct-06 00:30N 40°40' W 074°05'0 0.0
2017-Oct-06 00:00N 40°40' W 074°05'0 0.0
2017-Oct-05 23:27N 40°40' W 074°05'0 0.0
2017-Oct-05 23:00N 40°40' W 074°05'0 0.0
2017-Oct-05 22:24N 40°40' W 074°05'0 0.0
2017-Oct-05 21:57N 40°40' W 074°05'0 0.0
2017-Oct-05 21:30N 40°40' W 074°05'0 0.0
2017-Oct-05 20:54N 40°40' W 074°05'0 0.0
2017-Oct-05 20:28N 40°40' W 074°05'  
Track history (hours):
 
Tides and Currents Weather Stations Pressure Air Temp Water Temp Dewpoint Dewpoint Depression Visibility Wind Speed Wind Dir Waves Ship Positions

CG Bonito

Last reported at 2017-Oct-15 19:52 UTC. Time now 2017-Oct-18 11:26 UTC.
Position N 41°10' W 072°18'.

Length 26 m.

Type: Ship. MMSI: 366999656.

Date/timePositionNaut miles runAvg speedWind from/ knotsBaromVisibWave heightAir tempDewpointWater temp
2017-Oct-15 19:52N 41°10' W 072°18'719.7
2017-Oct-15 19:30N 41°09' W 072°27'8 0.1
2017-Oct-13 15:33N 41°08' W 072°37'111.1
2017-Oct-13 15:30N 41°08' W 072°36'511.3
2017-Oct-13 15:00N 41°09' W 072°29'510.5
2017-Oct-13 14:30N 41°10' W 072°22'  
2017-Oct-08 02:44N 40°17' W 073°02'2 8.3
2017-Oct-08 02:26N 40°15' W 073°05'5 7.5
2017-Oct-08 01:47N 40°12' W 073°10'3 7.3
2017-Oct-08 01:24N 40°11' W 073°13'3 7.3
2017-Oct-08 00:55N 40°08' W 073°16'39 3.6
2017-Oct-07 14:08N 40°31' W 073°58'216.6
2017-Oct-07 13:59N 40°32' W 074°01'612.5
2017-Oct-07 13:30N 40°38' W 074°03'3 5.9
2017-Oct-07 13:00N 40°40' W 074°05'0 0.0
2017-Oct-07 12:30N 40°40' W 074°05'0 0.1
2017-Oct-07 12:00N 40°40' W 074°05'0 0.0
2017-Oct-07 11:30N 40°40' W 074°05'0 0.0
2017-Oct-07 11:00N 40°40' W 074°05'0 0.0
2017-Oct-07 10:27N 40°40' W 074°05'0 0.0
2017-Oct-07 10:00N 40°40' W 074°05'0 0.0
2017-Oct-07 09:30N 40°40' W 074°05'0 0.0
2017-Oct-07 09:00N 40°40' W 074°05'0 0.0
2017-Oct-07 08:30N 40°40' W 074°05'0 0.0
2017-Oct-07 07:54N 40°40' W 074°05'0 0.0
2017-Oct-07 07:27N 40°40' W 074°05'0 0.0
2017-Oct-07 07:00N 40°40' W 074°05'0 0.0
2017-Oct-07 06:30N 40°40' W 074°05'0 0.0
2017-Oct-07 05:57N 40°40' W 074°05'0 0.0
2017-Oct-07 05:27N 40°40' W 074°05'0 0.0
2017-Oct-07 05:01N 40°40' W 074°05'0 0.0
2017-Oct-07 04:30N 40°40' W 074°05'0 0.0
2017-Oct-07 04:00N 40°40' W 074°05'0 0.0
2017-Oct-07 03:30N 40°40' W 074°05'0 0.0
2017-Oct-07 03:00N 40°40' W 074°05'0 0.0
2017-Oct-07 02:30N 40°40' W 074°05'0 0.0
2017-Oct-07 02:00N 40°40' W 074°05'0 0.0
2017-Oct-07 01:27N 40°40' W 074°05'0 0.0
2017-Oct-07 00:57N 40°40' W 074°05'0 0.0
2017-Oct-07 00:28N 40°40' W 074°05'0 0.0
2017-Oct-06 23:54N 40°40' W 074°05'0 0.0
2017-Oct-06 23:30N 40°40' W 074°05'0 0.0
2017-Oct-06 22:58N 40°40' W 074°05'0 0.0
2017-Oct-06 22:28N 40°40' W 074°05'0 0.0
2017-Oct-06 22:00N 40°40' W 074°05'0 0.0
2017-Oct-06 21:27N 40°40' W 074°05'0 0.0
2017-Oct-06 20:51N 40°40' W 074°05'0 0.0
2017-Oct-06 20:27N 40°40' W 074°05'0 0.0
2017-Oct-06 19:55N 40°40' W 074°05'0 0.0
2017-Oct-06 19:27N 40°40' W 074°05'0 0.0
2017-Oct-06 19:00N 40°40' W 074°05'0 0.0
2017-Oct-06 18:30N 40°40' W 074°05'0 0.0
2017-Oct-06 18:00N 40°40' W 074°05'0 0.0
2017-Oct-06 17:27N 40°40' W 074°05'0 0.0
2017-Oct-06 17:00N 40°40' W 074°05'0 0.0
2017-Oct-06 16:27N 40°40' W 074°05'0 0.0
2017-Oct-06 16:00N 40°40' W 074°05'0 0.0
2017-Oct-06 15:30N 40°40' W 074°05'0 0.0
2017-Oct-06 14:58N 40°40' W 074°05'0 0.0
2017-Oct-06 14:28N 40°40' W 074°05'0 0.0
2017-Oct-06 14:00N 40°40' W 074°05'0 0.0
2017-Oct-06 13:30N 40°40' W 074°05'0 0.0
2017-Oct-06 13:00N 40°40' W 074°05'0 0.0
2017-Oct-06 12:24N 40°40' W 074°05'0 0.0
2017-Oct-06 11:57N 40°40' W 074°05'0 0.0
2017-Oct-06 11:30N 40°40' W 074°05'0 0.0
2017-Oct-06 10:57N 40°40' W 074°05'0 0.0
2017-Oct-06 10:30N 40°40' W 074°05'0 0.0
2017-Oct-06 10:00N 40°40' W 074°05'0 0.0
2017-Oct-06 09:30N 40°40' W 074°05'0 0.0
2017-Oct-06 09:00N 40°40' W 074°05'0 0.0
2017-Oct-06 08:30N 40°40' W 074°05'0 0.0
2017-Oct-06 08:00N 40°40' W 074°05'0 0.0
2017-Oct-06 07:27N 40°40' W 074°05'0 0.0
2017-Oct-06 07:00N 40°40' W 074°05'0 0.0
2017-Oct-06 06:30N 40°40' W 074°05'0 0.0
2017-Oct-06 06:00N 40°40' W 074°05'0 0.0
2017-Oct-06 05:30N 40°40' W 074°05'0 0.0
2017-Oct-06 04:58N 40°40' W 074°05'0 0.0
2017-Oct-06 04:28N 40°40' W 074°05'0 0.0
2017-Oct-06 04:00N 40°40' W 074°05'0 0.0
2017-Oct-06 03:27N 40°40' W 074°05'0 0.0
2017-Oct-06 03:00N 40°40' W 074°05'0 0.0
2017-Oct-06 02:30N 40°40' W 074°05'0 0.0
2017-Oct-06 02:00N 40°40' W 074°05'0 0.0
2017-Oct-06 01:27N 40°40' W 074°05'0 0.0
2017-Oct-06 01:00N 40°40' W 074°05'0 0.0
2017-Oct-06 00:30N 40°40' W 074°05'0 0.0
2017-Oct-06 00:00N 40°40' W 074°05'0 0.0
2017-Oct-05 23:27N 40°40' W 074°05'0 0.0
2017-Oct-05 23:00N 40°40' W 074°05'0 0.0
2017-Oct-05 22:24N 40°40' W 074°05'0 0.0
2017-Oct-05 21:57N 40°40' W 074°05'0 0.0
2017-Oct-05 21:30N 40°40' W 074°05'0 0.0
2017-Oct-05 20:54N 40°40' W 074°05'0 0.0
2017-Oct-05 20:28N 40°40' W 074°05'  

Dump ship's entire track history